sensor_id;sensor_type;location;lat;lon;timestamp;P1;durP1;ratioP1;P2;durP2;ratioP2
19278;SDS011;9773;47.062;15.446;2022-10-31T00:00:12;9.50;;;4.93;;
19278;SDS011;9773;47.062;15.446;2022-10-31T00:02:58;6.67;;;4.73;;
19278;SDS011;9773;47.062;15.446;2022-10-31T00:05:25;9.23;;;4.70;;
19278;SDS011;9773;47.062;15.446;2022-10-31T00:07:51;7.23;;;4.70;;
19278;SDS011;9773;47.062;15.446;2022-10-31T00:10:18;6.27;;;4.70;;
19278;SDS011;9773;47.062;15.446;2022-10-31T00:12:45;8.73;;;5.00;;
19278;SDS011;9773;47.062;15.446;2022-10-31T00:15:19;6.47;;;4.90;;
19278;SDS011;9773;47.062;15.446;2022-10-31T00:17:45;7.37;;;4.87;;
19278;SDS011;9773;47.062;15.446;2022-10-31T00:20:13;7.63;;;5.20;;
19278;SDS011;9773;47.062;15.446;2022-10-31T00:22:43;6.43;;;4.93;;
19278;SDS011;9773;47.062;15.446;2022-10-31T00:25:14;7.37;;;4.53;;
19278;SDS011;9773;47.062;15.446;2022-10-31T00:27:39;7.33;;;5.17;;
19278;SDS011;9773;47.062;15.446;2022-10-31T00:30:06;11.40;;;4.43;;
19278;SDS011;9773;47.062;15.446;2022-10-31T00:32:45;5.77;;;5.03;;
19278;SDS011;9773;47.062;15.446;2022-10-31T00:35:12;10.03;;;4.60;;
19278;SDS011;9773;47.062;15.446;2022-10-31T00:37:43;8.63;;;5.33;;
19278;SDS011;9773;47.062;15.446;2022-10-31T00:40:11;7.60;;;4.90;;
19278;SDS011;9773;47.062;15.446;2022-10-31T00:42:41;7.17;;;5.53;;
19278;SDS011;9773;47.062;15.446;2022-10-31T00:45:08;5.97;;;5.00;;
19278;SDS011;9773;47.062;15.446;2022-10-31T00:47:43;8.80;;;5.77;;
19278;SDS011;9773;47.062;15.446;2022-10-31T00:50:18;8.77;;;5.23;;
19278;SDS011;9773;47.062;15.446;2022-10-31T00:52:46;7.83;;;5.33;;
19278;SDS011;9773;47.062;15.446;2022-10-31T00:55:12;6.70;;;4.80;;
19278;SDS011;9773;47.062;15.446;2022-10-31T00:57:42;6.00;;;4.93;;
19278;SDS011;9773;47.062;15.446;2022-10-31T01:00:22;9.07;;;4.97;;
19278;SDS011;9773;47.062;15.446;2022-10-31T01:02:48;5.93;;;5.00;;
19278;SDS011;9773;47.062;15.446;2022-10-31T01:05:17;8.20;;;4.73;;
19278;SDS011;9773;47.062;15.446;2022-10-31T01:07:43;8.13;;;5.50;;
19278;SDS011;9773;47.062;15.446;2022-10-31T01:10:12;6.83;;;4.73;;
19278;SDS011;9773;47.062;15.446;2022-10-31T01:15:08;6.20;;;4.67;;
19278;SDS011;9773;47.062;15.446;2022-10-31T01:17:35;8.80;;;4.23;;
19278;SDS011;9773;47.062;15.446;2022-10-31T01:20:01;8.60;;;5.43;;
19278;SDS011;9773;47.062;15.446;2022-10-31T01:22:27;8.60;;;5.00;;
19278;SDS011;9773;47.062;15.446;2022-10-31T01:24:53;6.50;;;4.30;;
19278;SDS011;9773;47.062;15.446;2022-10-31T01:27:19;6.47;;;4.20;;
19278;SDS011;9773;47.062;15.446;2022-10-31T01:29:45;6.90;;;4.50;;
19278;SDS011;9773;47.062;15.446;2022-10-31T01:32:11;6.77;;;4.67;;
19278;SDS011;9773;47.062;15.446;2022-10-31T01:34:36;6.53;;;4.53;;
19278;SDS011;9773;47.062;15.446;2022-10-31T01:37:02;9.30;;;4.77;;
19278;SDS011;9773;47.062;15.446;2022-10-31T01:39:28;4.77;;;4.33;;
19278;SDS011;9773;47.062;15.446;2022-10-31T01:41:55;8.80;;;4.50;;
19278;SDS011;9773;47.062;15.446;2022-10-31T01:46:52;6.20;;;5.03;;
19278;SDS011;9773;47.062;15.446;2022-10-31T01:49:26;11.03;;;6.50;;
19278;SDS011;9773;47.062;15.446;2022-10-31T01:52:04;7.23;;;5.70;;
19278;SDS011;9773;47.062;15.446;2022-10-31T01:54:42;7.93;;;6.07;;
19278;SDS011;9773;47.062;15.446;2022-10-31T01:57:13;8.80;;;5.80;;
19278;SDS011;9773;47.062;15.446;2022-10-31T01:59:44;10.70;;;6.50;;
19278;SDS011;9773;47.062;15.446;2022-10-31T02:02:19;8.47;;;6.63;;
19278;SDS011;9773;47.062;15.446;2022-10-31T02:04:45;9.67;;;6.43;;
19278;SDS011;9773;47.062;15.446;2022-10-31T02:07:16;8.50;;;6.03;;
19278;SDS011;9773;47.062;15.446;2022-10-31T02:10:02;7.93;;;6.47;;
19278;SDS011;9773;47.062;15.446;2022-10-31T02:12:30;13.73;;;6.47;;
19278;SDS011;9773;47.062;15.446;2022-10-31T02:14:59;11.77;;;6.60;;
19278;SDS011;9773;47.062;15.446;2022-10-31T02:17:26;9.73;;;6.60;;
19278;SDS011;9773;47.062;15.446;2022-10-31T02:19:56;11.37;;;6.73;;
19278;SDS011;9773;47.062;15.446;2022-10-31T02:31:25;14.60;;;5.50;;
19278;SDS011;9773;47.062;15.446;2022-10-31T02:34:18;6.53;;;5.70;;
19278;SDS011;9773;47.062;15.446;2022-10-31T02:36:56;7.10;;;5.67;;
19278;SDS011;9773;47.062;15.446;2022-10-31T02:39:26;9.10;;;5.30;;
19278;SDS011;9773;47.062;15.446;2022-10-31T02:42:12;6.07;;;4.93;;
19278;SDS011;9773;47.062;15.446;2022-10-31T02:47:17;10.90;;;6.37;;
19278;SDS011;9773;47.062;15.446;2022-10-31T02:49:55;10.00;;;6.20;;
19278;SDS011;9773;47.062;15.446;2022-10-31T02:52:27;7.00;;;6.30;;
19278;SDS011;9773;47.062;15.446;2022-10-31T02:54:55;9.73;;;6.47;;
19278;SDS011;9773;47.062;15.446;2022-10-31T02:57:28;7.37;;;5.90;;
19278;SDS011;9773;47.062;15.446;2022-10-31T03:00:02;11.50;;;6.27;;
19278;SDS011;9773;47.062;15.446;2022-10-31T03:10:59;7.53;;;6.60;;
19278;SDS011;9773;47.062;15.446;2022-10-31T03:13:39;9.40;;;6.83;;
19278;SDS011;9773;47.062;15.446;2022-10-31T03:19:03;8.47;;;6.77;;
19278;SDS011;9773;47.062;15.446;2022-10-31T03:21:43;9.63;;;6.60;;
19278;SDS011;9773;47.062;15.446;2022-10-31T03:24:14;10.57;;;7.00;;
19278;SDS011;9773;47.062;15.446;2022-10-31T03:26:42;11.70;;;7.40;;
19278;SDS011;9773;47.062;15.446;2022-10-31T03:29:13;9.53;;;7.07;;
19278;SDS011;9773;47.062;15.446;2022-10-31T03:31:44;7.40;;;6.53;;
19278;SDS011;9773;47.062;15.446;2022-10-31T03:34:19;9.67;;;6.00;;
19278;SDS011;9773;47.062;15.446;2022-10-31T03:36:48;9.03;;;6.43;;
19278;SDS011;9773;47.062;15.446;2022-10-31T03:39:17;6.73;;;5.90;;
19278;SDS011;9773;47.062;15.446;2022-10-31T03:44:44;6.00;;;5.40;;
19278;SDS011;9773;47.062;15.446;2022-10-31T03:47:15;6.20;;;5.47;;
19278;SDS011;9773;47.062;15.446;2022-10-31T03:49:53;5.67;;;5.17;;
19278;SDS011;9773;47.062;15.446;2022-10-31T03:52:24;6.10;;;5.50;;
19278;SDS011;9773;47.062;15.446;2022-10-31T03:54:52;6.03;;;5.53;;
19278;SDS011;9773;47.062;15.446;2022-10-31T04:00:45;6.20;;;5.63;;
19278;SDS011;9773;47.062;15.446;2022-10-31T04:03:14;5.57;;;5.07;;
19278;SDS011;9773;47.062;15.446;2022-10-31T04:05:49;6.30;;;5.70;;
19278;SDS011;9773;47.062;15.446;2022-10-31T04:08:20;6.03;;;5.40;;
19278;SDS011;9773;47.062;15.446;2022-10-31T04:10:55;5.90;;;5.30;;
19278;SDS011;9773;47.062;15.446;2022-10-31T04:13:26;5.87;;;5.33;;
19278;SDS011;9773;47.062;15.446;2022-10-31T04:16:02;6.10;;;5.40;;
19278;SDS011;9773;47.062;15.446;2022-10-31T04:18:28;5.50;;;5.10;;
19278;SDS011;9773;47.062;15.446;2022-10-31T04:23:31;6.20;;;5.60;;
19278;SDS011;9773;47.062;15.446;2022-10-31T04:28:26;5.47;;;5.00;;
19278;SDS011;9773;47.062;15.446;2022-10-31T04:30:53;6.10;;;5.37;;
19278;SDS011;9773;47.062;15.446;2022-10-31T04:33:20;6.27;;;5.20;;
19278;SDS011;9773;47.062;15.446;2022-10-31T04:35:46;5.93;;;5.43;;
19278;SDS011;9773;47.062;15.446;2022-10-31T04:38:13;5.33;;;4.87;;
19278;SDS011;9773;47.062;15.446;2022-10-31T04:40:41;5.90;;;5.40;;
19278;SDS011;9773;47.062;15.446;2022-10-31T04:43:15;6.07;;;5.50;;
19278;SDS011;9773;47.062;15.446;2022-10-31T04:45:46;5.67;;;5.13;;
19278;SDS011;9773;47.062;15.446;2022-10-31T04:48:16;6.90;;;5.57;;
19278;SDS011;9773;47.062;15.446;2022-10-31T04:50:57;5.53;;;5.13;;
19278;SDS011;9773;47.062;15.446;2022-10-31T04:53:27;6.13;;;5.63;;
19278;SDS011;9773;47.062;15.446;2022-10-31T04:56:07;5.83;;;5.23;;
19278;SDS011;9773;47.062;15.446;2022-10-31T04:58:33;6.97;;;6.37;;
19278;SDS011;9773;47.062;15.446;2022-10-31T05:00:58;5.80;;;5.30;;
19278;SDS011;9773;47.062;15.446;2022-10-31T05:03:24;7.30;;;5.70;;
19278;SDS011;9773;47.062;15.446;2022-10-31T05:05:50;6.73;;;5.80;;
19278;SDS011;9773;47.062;15.446;2022-10-31T05:08:16;6.27;;;5.77;;
19278;SDS011;9773;47.062;15.446;2022-10-31T05:10:43;5.50;;;5.10;;
19278;SDS011;9773;47.062;15.446;2022-10-31T05:13:10;6.30;;;5.80;;
19278;SDS011;9773;47.062;15.446;2022-10-31T05:15:36;6.10;;;5.47;;
19278;SDS011;9773;47.062;15.446;2022-10-31T05:18:03;6.33;;;5.77;;
19278;SDS011;9773;47.062;15.446;2022-10-31T05:20:29;5.90;;;5.40;;
19278;SDS011;9773;47.062;15.446;2022-10-31T05:22:56;5.90;;;5.37;;
19278;SDS011;9773;47.062;15.446;2022-10-31T05:25:23;5.73;;;5.23;;
19278;SDS011;9773;47.062;15.446;2022-10-31T05:27:56;5.30;;;4.90;;
19278;SDS011;9773;47.062;15.446;2022-10-31T05:30:32;5.67;;;5.00;;
19278;SDS011;9773;47.062;15.446;2022-10-31T05:33:05;6.47;;;5.87;;
19278;SDS011;9773;47.062;15.446;2022-10-31T05:35:31;5.90;;;5.40;;
19278;SDS011;9773;47.062;15.446;2022-10-31T05:37:59;6.77;;;6.07;;
19278;SDS011;9773;47.062;15.446;2022-10-31T05:46:00;6.10;;;5.50;;
19278;SDS011;9773;47.062;15.446;2022-10-31T05:48:27;6.47;;;5.87;;
19278;SDS011;9773;47.062;15.446;2022-10-31T05:50:52;6.27;;;5.70;;
19278;SDS011;9773;47.062;15.446;2022-10-31T05:53:18;6.53;;;5.40;;
19278;SDS011;9773;47.062;15.446;2022-10-31T05:55:44;5.70;;;5.27;;
19278;SDS011;9773;47.062;15.446;2022-10-31T05:58:11;5.80;;;5.30;;
19278;SDS011;9773;47.062;15.446;2022-10-31T06:00:39;6.60;;;6.00;;
19278;SDS011;9773;47.062;15.446;2022-10-31T06:05:41;6.50;;;5.87;;
19278;SDS011;9773;47.062;15.446;2022-10-31T06:08:12;7.53;;;5.60;;
19278;SDS011;9773;47.062;15.446;2022-10-31T06:10:38;6.43;;;5.63;;
19278;SDS011;9773;47.062;15.446;2022-10-31T06:13:05;6.20;;;5.57;;
19278;SDS011;9773;47.062;15.446;2022-10-31T06:15:32;9.90;;;5.93;;
19278;SDS011;9773;47.062;15.446;2022-10-31T06:18:05;6.43;;;5.80;;
19278;SDS011;9773;47.062;15.446;2022-10-31T06:20:42;6.43;;;5.80;;
19278;SDS011;9773;47.062;15.446;2022-10-31T06:23:09;7.40;;;6.00;;
19278;SDS011;9773;47.062;15.446;2022-10-31T06:25:35;6.40;;;5.87;;
19278;SDS011;9773;47.062;15.446;2022-10-31T06:28:01;6.97;;;6.23;;
19278;SDS011;9773;47.062;15.446;2022-10-31T06:30:26;6.57;;;5.97;;
19278;SDS011;9773;47.062;15.446;2022-10-31T06:32:52;6.43;;;5.83;;
19278;SDS011;9773;47.062;15.446;2022-10-31T06:35:18;6.67;;;6.10;;
19278;SDS011;9773;47.062;15.446;2022-10-31T06:37:50;6.30;;;5.70;;
19278;SDS011;9773;47.062;15.446;2022-10-31T06:40:19;6.73;;;5.90;;
19278;SDS011;9773;47.062;15.446;2022-10-31T06:42:45;6.17;;;5.57;;
19278;SDS011;9773;47.062;15.446;2022-10-31T06:45:10;6.70;;;5.63;;
19278;SDS011;9773;47.062;15.446;2022-10-31T06:47:39;6.93;;;5.10;;
19278;SDS011;9773;47.062;15.446;2022-10-31T06:50:05;6.17;;;5.23;;
19278;SDS011;9773;47.062;15.446;2022-10-31T06:52:31;6.13;;;5.47;;
19278;SDS011;9773;47.062;15.446;2022-10-31T06:54:57;5.90;;;5.33;;
19278;SDS011;9773;47.062;15.446;2022-10-31T06:57:23;5.87;;;5.03;;
19278;SDS011;9773;47.062;15.446;2022-10-31T06:59:48;6.27;;;5.20;;
19278;SDS011;9773;47.062;15.446;2022-10-31T07:02:14;6.90;;;5.90;;
19278;SDS011;9773;47.062;15.446;2022-10-31T07:04:40;8.40;;;5.20;;
19278;SDS011;9773;47.062;15.446;2022-10-31T07:07:06;5.47;;;4.83;;
19278;SDS011;9773;47.062;15.446;2022-10-31T07:09:34;9.10;;;5.60;;
19278;SDS011;9773;47.062;15.446;2022-10-31T07:12:00;5.77;;;5.27;;
19278;SDS011;9773;47.062;15.446;2022-10-31T07:14:26;5.80;;;5.20;;
19278;SDS011;9773;47.062;15.446;2022-10-31T07:16:55;7.13;;;5.67;;
19278;SDS011;9773;47.062;15.446;2022-10-31T07:19:20;6.40;;;4.97;;
19278;SDS011;9773;47.062;15.446;2022-10-31T07:21:46;6.67;;;5.40;;
19278;SDS011;9773;47.062;15.446;2022-10-31T07:24:12;9.43;;;5.20;;
19278;SDS011;9773;47.062;15.446;2022-10-31T07:26:38;5.57;;;4.90;;
19278;SDS011;9773;47.062;15.446;2022-10-31T07:29:03;8.93;;;5.57;;
19278;SDS011;9773;47.062;15.446;2022-10-31T07:31:29;8.10;;;5.43;;
19278;SDS011;9773;47.062;15.446;2022-10-31T07:33:55;8.83;;;5.40;;
19278;SDS011;9773;47.062;15.446;2022-10-31T07:36:21;6.90;;;6.20;;
19278;SDS011;9773;47.062;15.446;2022-10-31T07:38:48;7.97;;;5.53;;
19278;SDS011;9773;47.062;15.446;2022-10-31T07:41:14;7.87;;;6.57;;
19278;SDS011;9773;47.062;15.446;2022-10-31T07:43:40;8.40;;;6.03;;
19278;SDS011;9773;47.062;15.446;2022-10-31T07:46:06;7.73;;;6.00;;
19278;SDS011;9773;47.062;15.446;2022-10-31T07:48:31;7.10;;;6.00;;
19278;SDS011;9773;47.062;15.446;2022-10-31T07:50:57;5.87;;;5.37;;
19278;SDS011;9773;47.062;15.446;2022-10-31T07:53:24;7.13;;;6.10;;
19278;SDS011;9773;47.062;15.446;2022-10-31T07:55:50;7.83;;;6.40;;
19278;SDS011;9773;47.062;15.446;2022-10-31T07:58:16;8.23;;;5.90;;
19278;SDS011;9773;47.062;15.446;2022-10-31T08:00:43;8.23;;;6.27;;
19278;SDS011;9773;47.062;15.446;2022-10-31T08:03:12;10.03;;;6.00;;
19278;SDS011;9773;47.062;15.446;2022-10-31T08:05:42;8.10;;;5.60;;
19278;SDS011;9773;47.062;15.446;2022-10-31T08:08:11;7.07;;;5.70;;
19278;SDS011;9773;47.062;15.446;2022-10-31T08:10:38;7.17;;;5.60;;
19278;SDS011;9773;47.062;15.446;2022-10-31T08:13:06;7.97;;;5.73;;
19278;SDS011;9773;47.062;15.446;2022-10-31T08:15:34;8.27;;;5.80;;
19278;SDS011;9773;47.062;15.446;2022-10-31T08:18:03;9.80;;;5.53;;
19278;SDS011;9773;47.062;15.446;2022-10-31T08:20:29;12.20;;;5.27;;
19278;SDS011;9773;47.062;15.446;2022-10-31T08:22:59;9.37;;;6.03;;
19278;SDS011;9773;47.062;15.446;2022-10-31T08:25:27;8.73;;;5.97;;
19278;SDS011;9773;47.062;15.446;2022-10-31T08:27:54;7.23;;;6.00;;
19278;SDS011;9773;47.062;15.446;2022-10-31T08:30:23;8.63;;;5.97;;
19278;SDS011;9773;47.062;15.446;2022-10-31T08:32:57;8.03;;;5.67;;
19278;SDS011;9773;47.062;15.446;2022-10-31T08:35:26;8.47;;;5.90;;
19278;SDS011;9773;47.062;15.446;2022-10-31T08:37:55;8.13;;;5.50;;
19278;SDS011;9773;47.062;15.446;2022-10-31T08:40:22;6.33;;;5.20;;
19278;SDS011;9773;47.062;15.446;2022-10-31T08:42:55;6.43;;;5.47;;
19278;SDS011;9773;47.062;15.446;2022-10-31T08:45:21;7.10;;;5.67;;
19278;SDS011;9773;47.062;15.446;2022-10-31T08:47:47;8.43;;;6.07;;
19278;SDS011;9773;47.062;15.446;2022-10-31T08:50:13;8.30;;;6.23;;
19278;SDS011;9773;47.062;15.446;2022-10-31T08:52:39;7.17;;;5.43;;
19278;SDS011;9773;47.062;15.446;2022-10-31T08:55:05;8.83;;;5.90;;
19278;SDS011;9773;47.062;15.446;2022-10-31T08:57:31;7.40;;;5.43;;
19278;SDS011;9773;47.062;15.446;2022-10-31T08:59:57;10.50;;;5.20;;
19278;SDS011;9773;47.062;15.446;2022-10-31T09:02:23;8.97;;;5.07;;
19278;SDS011;9773;47.062;15.446;2022-10-31T09:04:49;6.97;;;4.50;;
19278;SDS011;9773;47.062;15.446;2022-10-31T09:07:15;11.13;;;5.53;;
19278;SDS011;9773;47.062;15.446;2022-10-31T09:09:42;5.97;;;4.70;;
19278;SDS011;9773;47.062;15.446;2022-10-31T09:12:09;7.63;;;4.60;;
19278;SDS011;9773;47.062;15.446;2022-10-31T09:14:35;5.10;;;4.53;;
19278;SDS011;9773;47.062;15.446;2022-10-31T09:17:01;7.07;;;5.10;;
19278;SDS011;9773;47.062;15.446;2022-10-31T09:19:28;7.80;;;4.93;;
19278;SDS011;9773;47.062;15.446;2022-10-31T09:21:54;7.63;;;5.37;;
19278;SDS011;9773;47.062;15.446;2022-10-31T09:24:20;7.63;;;5.07;;
19278;SDS011;9773;47.062;15.446;2022-10-31T09:26:46;9.27;;;5.60;;
19278;SDS011;9773;47.062;15.446;2022-10-31T09:29:12;9.50;;;5.50;;
19278;SDS011;9773;47.062;15.446;2022-10-31T09:31:38;6.97;;;5.67;;
19278;SDS011;9773;47.062;15.446;2022-10-31T09:34:03;10.87;;;4.80;;
19278;SDS011;9773;47.062;15.446;2022-10-31T09:36:29;11.27;;;5.27;;
19278;SDS011;9773;47.062;15.446;2022-10-31T09:38:55;10.30;;;5.27;;
19278;SDS011;9773;47.062;15.446;2022-10-31T09:41:34;7.23;;;4.90;;
19278;SDS011;9773;47.062;15.446;2022-10-31T09:50:18;8.63;;;5.07;;
19278;SDS011;9773;47.062;15.446;2022-10-31T09:53:02;7.33;;;5.30;;
19278;SDS011;9773;47.062;15.446;2022-10-31T09:55:38;7.27;;;4.53;;
19278;SDS011;9773;47.062;15.446;2022-10-31T09:58:14;5.43;;;4.30;;
19278;SDS011;9773;47.062;15.446;2022-10-31T10:00:43;7.00;;;4.70;;
19278;SDS011;9773;47.062;15.446;2022-10-31T10:06:11;7.73;;;5.17;;
19278;SDS011;9773;47.062;15.446;2022-10-31T10:08:44;8.90;;;5.00;;
19278;SDS011;9773;47.062;15.446;2022-10-31T10:16:57;11.13;;;5.77;;
19278;SDS011;9773;47.062;15.446;2022-10-31T10:20:00;8.70;;;6.20;;
19278;SDS011;9773;47.062;15.446;2022-10-31T10:25:13;8.47;;;4.80;;
19278;SDS011;9773;47.062;15.446;2022-10-31T10:27:55;7.03;;;4.87;;
19278;SDS011;9773;47.062;15.446;2022-10-31T10:33:54;7.17;;;4.60;;
19278;SDS011;9773;47.062;15.446;2022-10-31T10:36:44;9.33;;;5.13;;
19278;SDS011;9773;47.062;15.446;2022-10-31T10:39:27;7.50;;;4.30;;
19278;SDS011;9773;47.062;15.446;2022-10-31T10:42:00;8.60;;;4.77;;
19278;SDS011;9773;47.062;15.446;2022-10-31T10:44:51;8.10;;;4.37;;
19278;SDS011;9773;47.062;15.446;2022-10-31T10:47:42;6.53;;;4.70;;
19278;SDS011;9773;47.062;15.446;2022-10-31T10:50:20;5.33;;;4.33;;
19278;SDS011;9773;47.062;15.446;2022-10-31T10:53:02;7.77;;;4.37;;
19278;SDS011;9773;47.062;15.446;2022-10-31T10:55:56;5.73;;;4.10;;
19278;SDS011;9773;47.062;15.446;2022-10-31T10:58:45;5.40;;;3.90;;
19278;SDS011;9773;47.062;15.446;2022-10-31T11:01:12;8.50;;;4.80;;
19278;SDS011;9773;47.062;15.446;2022-10-31T11:03:41;6.63;;;4.57;;
19278;SDS011;9773;47.062;15.446;2022-10-31T11:06:21;6.10;;;4.00;;
19278;SDS011;9773;47.062;15.446;2022-10-31T11:08:51;9.07;;;4.60;;
19278;SDS011;9773;47.062;15.446;2022-10-31T11:11:24;5.13;;;4.50;;
19278;SDS011;9773;47.062;15.446;2022-10-31T11:13:57;5.97;;;4.27;;
19278;SDS011;9773;47.062;15.446;2022-10-31T11:21:40;8.33;;;4.57;;
19278;SDS011;9773;47.062;15.446;2022-10-31T11:26:38;5.33;;;4.20;;
19278;SDS011;9773;47.062;15.446;2022-10-31T11:29:10;5.63;;;4.50;;
19278;SDS011;9773;47.062;15.446;2022-10-31T11:31:41;6.60;;;4.23;;
19278;SDS011;9773;47.062;15.446;2022-10-31T11:34:13;5.03;;;4.33;;
19278;SDS011;9773;47.062;15.446;2022-10-31T11:37:14;11.37;;;7.03;;
19278;SDS011;9773;47.062;15.446;2022-10-31T11:39:43;5.83;;;4.53;;
19278;SDS011;9773;47.062;15.446;2022-10-31T11:42:18;8.10;;;4.13;;
19278;SDS011;9773;47.062;15.446;2022-10-31T11:45:01;5.33;;;3.50;;
19278;SDS011;9773;47.062;15.446;2022-10-31T11:47:40;5.97;;;4.30;;
19278;SDS011;9773;47.062;15.446;2022-10-31T11:50:11;4.80;;;4.27;;
19278;SDS011;9773;47.062;15.446;2022-10-31T11:52:45;5.70;;;3.87;;
19278;SDS011;9773;47.062;15.446;2022-10-31T11:57:46;4.27;;;3.93;;
19278;SDS011;9773;47.062;15.446;2022-10-31T12:02:51;4.90;;;4.10;;
19278;SDS011;9773;47.062;15.446;2022-10-31T12:05:39;4.67;;;4.20;;
19278;SDS011;9773;47.062;15.446;2022-10-31T12:08:09;6.47;;;3.93;;
19278;SDS011;9773;47.062;15.446;2022-10-31T12:27:22;6.07;;;4.40;;
19278;SDS011;9773;47.062;15.446;2022-10-31T12:30:21;4.17;;;3.77;;
19278;SDS011;9773;47.062;15.446;2022-10-31T12:44:44;5.53;;;4.13;;
19278;SDS011;9773;47.062;15.446;2022-10-31T12:47:30;4.30;;;3.87;;
19278;SDS011;9773;47.062;15.446;2022-10-31T12:53:36;3.77;;;3.47;;
19278;SDS011;9773;47.062;15.446;2022-10-31T12:56:41;4.47;;;3.57;;
19278;SDS011;9773;47.062;15.446;2022-10-31T12:59:29;5.30;;;3.90;;
19278;SDS011;9773;47.062;15.446;2022-10-31T13:02:21;4.17;;;3.80;;
19278;SDS011;9773;47.062;15.446;2022-10-31T13:05:10;4.50;;;4.10;;
19278;SDS011;9773;47.062;15.446;2022-10-31T13:07:56;4.90;;;3.60;;
19278;SDS011;9773;47.062;15.446;2022-10-31T13:10:52;4.03;;;3.50;;
19278;SDS011;9773;47.062;15.446;2022-10-31T13:15:55;4.40;;;4.00;;
19278;SDS011;9773;47.062;15.446;2022-10-31T13:18:38;4.33;;;3.97;;
19278;SDS011;9773;47.062;15.446;2022-10-31T13:21:10;5.07;;;4.07;;
19278;SDS011;9773;47.062;15.446;2022-10-31T13:23:44;5.03;;;4.20;;
19278;SDS011;9773;47.062;15.446;2022-10-31T13:26:15;3.93;;;3.63;;
19278;SDS011;9773;47.062;15.446;2022-10-31T13:31:41;6.30;;;4.60;;
19278;SDS011;9773;47.062;15.446;2022-10-31T13:34:42;9.10;;;4.43;;
19278;SDS011;9773;47.062;15.446;2022-10-31T13:37:05;4.53;;;3.70;;
19278;SDS011;9773;47.062;15.446;2022-10-31T13:45:15;4.90;;;4.10;;
19278;SDS011;9773;47.062;15.446;2022-10-31T13:48:46;4.30;;;3.90;;
19278;SDS011;9773;47.062;15.446;2022-10-31T13:51:00;8.23;;;4.50;;
19278;SDS011;9773;47.062;15.446;2022-10-31T13:53:40;4.93;;;4.33;;
19278;SDS011;9773;47.062;15.446;2022-10-31T13:56:16;5.33;;;4.83;;
19278;SDS011;9773;47.062;15.446;2022-10-31T14:01:36;5.03;;;4.53;;
19278;SDS011;9773;47.062;15.446;2022-10-31T14:11:53;6.10;;;4.50;;
19278;SDS011;9773;47.062;15.446;2022-10-31T14:14:21;4.70;;;4.30;;
19278;SDS011;9773;47.062;15.446;2022-10-31T14:17:02;5.93;;;3.77;;
19278;SDS011;9773;47.062;15.446;2022-10-31T14:22:36;8.40;;;4.33;;
19278;SDS011;9773;47.062;15.446;2022-10-31T14:27:53;8.20;;;4.47;;
19278;SDS011;9773;47.062;15.446;2022-10-31T14:30:20;7.57;;;5.77;;
19278;SDS011;9773;47.062;15.446;2022-10-31T14:32:50;5.93;;;4.80;;
19278;SDS011;9773;47.062;15.446;2022-10-31T14:35:23;6.13;;;4.83;;
19278;SDS011;9773;47.062;15.446;2022-10-31T14:40:27;4.83;;;4.30;;
19278;SDS011;9773;47.062;15.446;2022-10-31T14:43:16;4.90;;;4.50;;
19278;SDS011;9773;47.062;15.446;2022-10-31T14:46:02;4.97;;;4.57;;
19278;SDS011;9773;47.062;15.446;2022-10-31T14:51:32;4.73;;;4.37;;
19278;SDS011;9773;47.062;15.446;2022-10-31T14:54:45;4.90;;;4.47;;
19278;SDS011;9773;47.062;15.446;2022-10-31T14:57:06;6.73;;;4.53;;
19278;SDS011;9773;47.062;15.446;2022-10-31T14:59:40;5.07;;;4.67;;
19278;SDS011;9773;47.062;15.446;2022-10-31T15:04:44;5.33;;;4.83;;
19278;SDS011;9773;47.062;15.446;2022-10-31T15:07:19;7.00;;;5.70;;
19278;SDS011;9773;47.062;15.446;2022-10-31T15:10:15;7.33;;;6.07;;
19278;SDS011;9773;47.062;15.446;2022-10-31T15:12:47;7.50;;;5.60;;
19278;SDS011;9773;47.062;15.446;2022-10-31T15:15:23;8.67;;;5.23;;
19278;SDS011;9773;47.062;15.446;2022-10-31T15:17:54;5.90;;;5.40;;
19278;SDS011;9773;47.062;15.446;2022-10-31T15:20:27;6.37;;;5.77;;
19278;SDS011;9773;47.062;15.446;2022-10-31T15:22:58;8.00;;;5.73;;
19278;SDS011;9773;47.062;15.446;2022-10-31T15:25:27;7.10;;;5.40;;
19278;SDS011;9773;47.062;15.446;2022-10-31T15:27:57;7.20;;;5.57;;
19278;SDS011;9773;47.062;15.446;2022-10-31T15:30:24;7.93;;;5.33;;
19278;SDS011;9773;47.062;15.446;2022-10-31T15:32:52;7.00;;;5.33;;
19278;SDS011;9773;47.062;15.446;2022-10-31T15:35:25;5.20;;;4.77;;
19278;SDS011;9773;47.062;15.446;2022-10-31T15:37:58;6.37;;;5.20;;
19278;SDS011;9773;47.062;15.446;2022-10-31T15:40:26;6.80;;;5.70;;
19278;SDS011;9773;47.062;15.446;2022-10-31T15:43:03;6.40;;;5.23;;
19278;SDS011;9773;47.062;15.446;2022-10-31T15:45:31;7.03;;;5.60;;
19278;SDS011;9773;47.062;15.446;2022-10-31T15:47:58;6.17;;;5.67;;
19278;SDS011;9773;47.062;15.446;2022-10-31T15:50:33;6.10;;;5.60;;
19278;SDS011;9773;47.062;15.446;2022-10-31T15:53:03;5.90;;;5.20;;
19278;SDS011;9773;47.062;15.446;2022-10-31T15:55:32;8.83;;;5.40;;
19278;SDS011;9773;47.062;15.446;2022-10-31T15:58:04;6.47;;;5.87;;
19278;SDS011;9773;47.062;15.446;2022-10-31T16:00:37;6.77;;;6.17;;
19278;SDS011;9773;47.062;15.446;2022-10-31T16:05:45;15.30;;;7.20;;
19278;SDS011;9773;47.062;15.446;2022-10-31T16:10:59;6.97;;;6.37;;
19278;SDS011;9773;47.062;15.446;2022-10-31T16:13:32;9.13;;;7.13;;
19278;SDS011;9773;47.062;15.446;2022-10-31T16:16:02;9.27;;;8.30;;
19278;SDS011;9773;47.062;15.446;2022-10-31T16:18:30;7.53;;;6.90;;
19278;SDS011;9773;47.062;15.446;2022-10-31T16:21:02;9.97;;;7.60;;
19278;SDS011;9773;47.062;15.446;2022-10-31T16:23:28;7.87;;;7.07;;
19278;SDS011;9773;47.062;15.446;2022-10-31T16:25:54;7.40;;;6.50;;
19278;SDS011;9773;47.062;15.446;2022-10-31T16:28:21;7.67;;;6.87;;
19278;SDS011;9773;47.062;15.446;2022-10-31T16:30:50;9.77;;;7.40;;
19278;SDS011;9773;47.062;15.446;2022-10-31T16:35:49;8.97;;;8.03;;
19278;SDS011;9773;47.062;15.446;2022-10-31T16:38:15;8.70;;;7.80;;
19278;SDS011;9773;47.062;15.446;2022-10-31T16:40:41;9.57;;;8.53;;
19278;SDS011;9773;47.062;15.446;2022-10-31T16:43:08;11.13;;;8.27;;
19278;SDS011;9773;47.062;15.446;2022-10-31T16:45:42;9.97;;;7.73;;
19278;SDS011;9773;47.062;15.446;2022-10-31T16:48:17;9.13;;;8.17;;
19278;SDS011;9773;47.062;15.446;2022-10-31T16:50:46;11.07;;;8.23;;
19278;SDS011;9773;47.062;15.446;2022-10-31T16:53:14;10.23;;;9.23;;
19278;SDS011;9773;47.062;15.446;2022-10-31T16:55:52;9.57;;;8.43;;
19278;SDS011;9773;47.062;15.446;2022-10-31T16:58:31;9.60;;;8.60;;
19278;SDS011;9773;47.062;15.446;2022-10-31T17:01:01;13.50;;;9.57;;
19278;SDS011;9773;47.062;15.446;2022-10-31T17:03:30;10.83;;;9.20;;
19278;SDS011;9773;47.062;15.446;2022-10-31T17:05:56;13.87;;;9.87;;
19278;SDS011;9773;47.062;15.446;2022-10-31T17:08:22;10.33;;;9.33;;
19278;SDS011;9773;47.062;15.446;2022-10-31T17:10:53;11.87;;;9.50;;
19278;SDS011;9773;47.062;15.446;2022-10-31T17:13:24;11.70;;;9.33;;
19278;SDS011;9773;47.062;15.446;2022-10-31T17:15:55;13.53;;;9.67;;
19278;SDS011;9773;47.062;15.446;2022-10-31T17:18:24;10.67;;;9.00;;
19278;SDS011;9773;47.062;15.446;2022-10-31T17:20:56;9.40;;;8.43;;
19278;SDS011;9773;47.062;15.446;2022-10-31T17:23:23;11.33;;;9.50;;
19278;SDS011;9773;47.062;15.446;2022-10-31T17:25:50;16.47;;;11.40;;
19278;SDS011;9773;47.062;15.446;2022-10-31T17:28:16;11.10;;;9.93;;
19278;SDS011;9773;47.062;15.446;2022-10-31T17:30:42;15.73;;;11.50;;
19278;SDS011;9773;47.062;15.446;2022-10-31T17:33:09;13.33;;;11.60;;
19278;SDS011;9773;47.062;15.446;2022-10-31T17:35:40;11.87;;;9.80;;
19278;SDS011;9773;47.062;15.446;2022-10-31T17:38:08;12.23;;;10.13;;
19278;SDS011;9773;47.062;15.446;2022-10-31T17:40:36;12.43;;;10.17;;
19278;SDS011;9773;47.062;15.446;2022-10-31T17:43:03;12.33;;;9.87;;
19278;SDS011;9773;47.062;15.446;2022-10-31T17:45:29;12.23;;;9.97;;